Time;durP1;ratioP1;P1;durP2;ratioP2;P2;SDS_P1;SDS_P2;PMS_P1;PMS_P2;Temp;Humidity;BMP_temperature;BMP_pressure;BME280_temperature;BME280_humidity;BME280_pressure;Samples;Min_cycle;Max_cycle;Signal;HPM_P1;HPM_P2
2023/05/15 00:02:11;;;;;;;5.82;4.68;;;;;;;;;;5052899;28;20049;-59
2023/05/15 00:04:38;;;;;;;5.78;5.28;;;;;;;;;;5053265;28;20057;-59
2023/05/15 00:07:07;;;;;;;5.90;5.30;;;;;;;;;;5052994;28;20413;-59
2023/05/15 00:09:37;;;;;;;5.35;4.85;;;;;;;;;;5053233;28;20482;-59
2023/05/15 00:12:04;;;;;;;6.53;5.35;;;;;;;;;;5052992;28;20069;-59
2023/05/15 00:14:31;;;;;;;5.80;4.90;;;;;;;;;;5053075;28;20045;-59
2023/05/15 00:16:59;;;;;;;5.32;4.50;;;;;;;;;;5052678;28;20414;-59
2023/05/15 00:19:27;;;;;;;6.25;4.45;;;;;;;;;;5054900;28;20060;-59
2023/05/15 00:21:54;;;;;;;5.55;4.55;;;;;;;;;;5073317;28;20485;-59
2023/05/15 00:24:21;;;;;;;4.72;4.22;;;;;;;;;;5073086;28;20048;-61
2023/05/15 00:26:48;;;;;;;5.78;4.78;;;;;;;;;;5072625;28;20060;-60
2023/05/15 00:29:15;;;;;;;5.35;4.72;;;;;;;;;;5067313;28;20056;-60
2023/05/15 00:31:42;;;;;;;5.78;4.78;;;;;;;;;;5052591;28;20053;-59
2023/05/15 00:34:08;;;;;;;6.72;4.97;;;;;;;;;;5052875;28;20059;-60
2023/05/15 00:36:37;;;;;;;5.88;5.28;;;;;;;;;;5052854;28;20049;-60
2023/05/15 00:39:04;;;;;;;6.25;4.90;;;;;;;;;;5052400;28;20048;-60
2023/05/15 00:41:31;;;;;;;5.10;4.60;;;;;;;;;;5052823;28;20395;-60
2023/05/15 00:44:00;;;;;;;4.93;4.38;;;;;;;;;;5051806;28;20053;-60
2023/05/15 00:46:27;;;;;;;5.43;4.57;;;;;;;;;;5052432;28;20053;-60
2023/05/15 00:48:56;;;;;;;4.93;4.40;;;;;;;;;;5052487;28;20049;-60
2023/05/15 00:51:23;;;;;;;7.38;5.28;;;;;;;;;;5052753;28;20060;-60
2023/05/15 00:53:51;;;;;;;5.93;5.05;;;;;;;;;;5052694;28;20080;-59
2023/05/15 00:56:18;;;;;;;6.07;5.53;;;;;;;;;;5052670;28;20410;-59
2023/05/15 00:58:46;;;;;;;5.93;5.20;;;;;;;;;;5052438;28;20505;-59
2023/05/15 01:01:13;;;;;;;6.47;5.88;;;;;;;;;;5070277;28;20060;-59
2023/05/15 01:03:40;;;;;;;7.35;5.88;;;;;;;;;;5075621;28;20539;-60
2023/05/15 01:06:07;;;;;;;5.60;5.10;;;;;;;;;;5076511;28;20044;-60
2023/05/15 01:08:37;;;;;;;7.15;5.43;;;;;;;;;;5076485;28;20052;-60
2023/05/15 01:11:06;;;;;;;7.25;5.50;;;;;;;;;;5075893;28;20056;-59
2023/05/15 01:13:32;;;;;;;6.63;5.95;;;;;;;;;;5070474;28;20053;-59
2023/05/15 01:15:59;;;;;;;6.32;5.72;;;;;;;;;;5056203;28;20060;-60
2023/05/15 01:18:30;;;;;;;5.65;5.15;;;;;;;;;;5054803;28;20052;-60
2023/05/15 01:21:15;;;;;;;5.30;4.80;;;;;;;;;;5055839;28;20489;-60
2023/05/15 01:23:46;;;;;;;5.45;4.93;;;;;;;;;;5007021;28;20057;-59
2023/05/15 01:26:28;;;;;;;6.00;5.40;;;;;;;;;;5068209;28;20052;-59
2023/05/15 01:28:59;;;;;;;6.57;5.90;;;;;;;;;;5030732;28;20052;-60
2023/05/15 01:31:27;;;;;;;5.45;4.95;;;;;;;;;;5056155;28;20057;-59
2023/05/15 01:33:59;;;;;;;6.30;5.70;;;;;;;;;;5055707;28;20434;-59
2023/05/15 01:36:30;;;;;;;7.20;5.75;;;;;;;;;;5056020;28;20056;-60
2023/05/15 01:38:57;;;;;;;7.00;6.30;;;;;;;;;;5056006;28;20478;-60
2023/05/15 01:41:27;;;;;;;7.97;5.93;;;;;;;;;;5055911;28;20057;-60
2023/05/15 01:43:57;;;;;;;6.43;5.82;;;;;;;;;;5055386;28;20060;-60
2023/05/15 01:46:27;;;;;;;7.47;5.97;;;;;;;;;;5056107;28;20505;-59
2023/05/15 01:48:55;;;;;;;6.38;5.72;;;;;;;;;;5055721;28;20053;-59
2023/05/15 01:51:22;;;;;;;6.90;5.57;;;;;;;;;;5054960;28;20064;-59
2023/05/15 01:53:49;;;;;;;5.05;4.57;;;;;;;;;;5055384;28;20057;-60
2023/05/15 01:56:18;;;;;;;5.30;4.80;;;;;;;;;;5055458;28;20482;-59
2023/05/15 01:58:46;;;;;;;7.28;5.90;;;;;;;;;;5055680;28;20075;-59
2023/05/15 02:01:15;;;;;;;5.32;4.82;;;;;;;;;;5073303;28;20052;-59
2023/05/15 02:03:46;;;;;;;5.82;5.32;;;;;;;;;;5075399;28;20060;-59
2023/05/15 02:06:13;;;;;;;5.78;5.20;;;;;;;;;;5074852;28;20064;-59
2023/05/15 02:08:41;;;;;;;7.10;5.32;;;;;;;;;;5075347;28;20056;-60
2023/05/15 02:11:09;;;;;;;6.50;5.20;;;;;;;;;;5074889;28;20059;-58
2023/05/15 02:13:36;;;;;;;7.03;5.38;;;;;;;;;;5067453;28;20053;-59
2023/05/15 02:16:03;;;;;;;6.93;5.53;;;;;;;;;;5054797;28;20049;-59
2023/05/15 02:18:31;;;;;;;5.75;5.18;;;;;;;;;;5055230;28;20478;-59
2023/05/15 02:20:59;;;;;;;6.30;5.07;;;;;;;;;;5054616;28;20056;-59
2023/05/15 02:23:26;;;;;;;5.82;4.35;;;;;;;;;;5054966;28;20057;-59
2023/05/15 02:26:01;;;;;;;8.15;5.10;;;;;;;;;;5069240;28;20441;-59
2023/05/15 02:28:30;;;;;;;6.03;5.43;;;;;;;;;;5067589;28;20053;-59
2023/05/15 02:31:02;;;;;;;5.47;4.70;;;;;;;;;;5055201;28;20387;-59
2023/05/15 02:33:35;;;;;;;5.65;5.15;;;;;;;;;;5055098;28;20053;-59
2023/05/15 02:36:05;;;;;;;5.05;4.55;;;;;;;;;;5054782;28;20060;-59
2023/05/15 02:38:31;;;;;;;;;;;;;;;;;;5055021;28;20064;-59
2023/05/15 02:40:59;;;;;;;5.63;5.00;;;;;;;;;;5054768;28;19943;-59
2023/05/15 02:43:26;;;;;;;6.55;5.10;;;;;;;;;;5054742;28;20061;-59
2023/05/15 02:45:55;;;;;;;6.88;5.05;;;;;;;;;;5053784;28;20418;-59
2023/05/15 02:48:22;;;;;;;7.80;5.43;;;;;;;;;;5054984;28;20517;-60
2023/05/15 02:50:51;;;;;;;5.78;5.10;;;;;;;;;;5054546;28;20045;-59
2023/05/15 02:53:25;;;;;;;6.35;5.75;;;;;;;;;;5054632;28;20057;-60
2023/05/15 02:55:51;;;;;;;7.20;5.55;;;;;;;;;;5054106;28;20049;-60
2023/05/15 02:58:18;;;;;;;6.43;5.72;;;;;;;;;;5054185;28;20056;-59
2023/05/15 03:00:45;;;;;;;6.28;5.68;;;;;;;;;;5064278;28;20048;-59
2023/05/15 03:03:12;;;;;;;5.72;5.13;;;;;;;;;;5055453;28;20052;-60
2023/05/15 03:05:39;;;;;;;7.90;5.60;;;;;;;;;;5053996;28;20433;-60
2023/05/15 03:08:10;;;;;;;5.97;5.47;;;;;;;;;;5053562;28;20065;-60
2023/05/15 03:10:37;;;;;;;5.93;5.35;;;;;;;;;;5053747;28;20490;-60
2023/05/15 03:13:04;;;;;;;6.53;5.22;;;;;;;;;;5053282;28;20064;-60
2023/05/15 03:15:34;;;;;;;6.45;5.13;;;;;;;;;;5073418;28;20059;-59
2023/05/15 03:18:01;;;;;;;5.65;5.05;;;;;;;;;;5073674;28;20516;-59
2023/05/15 03:20:28;;;;;;;6.65;5.70;;;;;;;;;;5073940;28;20049;-60
2023/05/15 03:22:55;;;;;;;6.10;5.35;;;;;;;;;;5073536;28;20048;-60
2023/05/15 03:25:23;;;;;;;8.93;5.43;;;;;;;;;;5073901;28;20067;-60
2023/05/15 03:27:50;;;;;;;6.50;5.80;;;;;;;;;;5071157;28;20049;-60
2023/05/15 03:30:17;;;;;;;6.10;5.25;;;;;;;;;;5053575;28;20056;-60
2023/05/15 03:32:43;;;;;;;8.07;5.35;;;;;;;;;;5053592;28;20076;-61
2023/05/15 03:35:10;;;;;;;6.45;5.85;;;;;;;;;;5053122;28;20057;-60
2023/05/15 03:37:37;;;;;;;7.53;5.82;;;;;;;;;;5053548;28;20061;-60
2023/05/15 03:40:06;;;;;;;6.80;6.07;;;;;;;;;;5053628;28;20462;-60
2023/05/15 03:42:34;;;;;;;7.75;6.85;;;;;;;;;;5053198;28;20057;-59
2023/05/15 03:45:01;;;;;;;8.15;6.57;;;;;;;;;;5053984;28;20060;-60
2023/05/15 03:47:28;;;;;;;9.35;6.88;;;;;;;;;;5053278;28;20061;-60
2023/05/15 03:49:54;;;;;;;8.05;6.05;;;;;;;;;;5053554;28;20470;-60
2023/05/15 03:52:21;;;;;;;8.00;6.43;;;;;;;;;;5053454;28;20052;-60
2023/05/15 03:54:48;;;;;;;6.45;5.75;;;;;;;;;;5052732;28;20402;-60
2023/05/15 03:57:15;;;;;;;7.88;6.00;;;;;;;;;;5053101;28;20045;-61
2023/05/15 03:59:43;;;;;;;8.32;5.88;;;;;;;;;;5056839;28;20048;-61
2023/05/15 04:02:10;;;;;;;6.47;5.70;;;;;;;;;;5073117;28;20405;-60
2023/05/15 04:04:37;;;;;;;7.10;6.32;;;;;;;;;;5073536;28;20053;-61
2023/05/15 04:07:04;;;;;;;8.18;6.25;;;;;;;;;;5073164;28;20064;-60
2023/05/15 04:09:31;;;;;;;7.80;6.75;;;;;;;;;;5073017;28;20066;-60
2023/05/15 04:11:58;;;;;;;6.15;5.43;;;;;;;;;;5072532;28;20048;-60
2023/05/15 04:14:25;;;;;;;6.93;6.18;;;;;;;;;;5055010;28;20057;-60
2023/05/15 04:16:53;;;;;;;6.20;5.50;;;;;;;;;;5053072;28;20509;-60
2023/05/15 04:19:20;;;;;;;6.00;5.38;;;;;;;;;;5053012;28;20071;-59
2023/05/15 04:21:46;;;;;;;5.63;5.13;;;;;;;;;;5052834;28;20052;-59
2023/05/15 04:24:13;;;;;;;6.45;5.85;;;;;;;;;;5053009;28;20136;-60
2023/05/15 04:26:40;;;;;;;6.18;5.50;;;;;;;;;;5052729;28;20509;-59
2023/05/15 04:29:08;;;;;;;6.88;5.10;;;;;;;;;;5057997;28;20056;-59
2023/05/15 04:31:35;;;;;;;8.55;5.47;;;;;;;;;;5052369;28;20068;-59
2023/05/15 04:34:04;;;;;;;7.65;5.70;;;;;;;;;;5052781;28;20053;-59
2023/05/15 04:36:31;;;;;;;6.40;5.75;;;;;;;;;;5052602;28;20064;-59
2023/05/15 04:38:57;;;;;;;7.97;6.45;;;;;;;;;;5052538;28;20383;-60
2023/05/15 04:41:25;;;;;;;8.35;6.72;;;;;;;;;;5052379;28;20049;-60
2023/05/15 04:43:52;;;;;;;10.48;6.93;;;;;;;;;;5055907;28;20056;-59
2023/05/15 04:46:19;;;;;;;10.48;7.93;;;;;;;;;;5060030;28;20059;-60
2023/05/15 04:48:46;;;;;;;13.38;9.35;;;;;;;;;;5052799;28;20049;-60
2023/05/15 04:51:14;;;;;;;16.83;11.20;;;;;;;;;;5052669;28;20076;-60
2023/05/15 04:53:41;;;;;;;23.15;12.93;;;;;;;;;;5052478;28;20398;-58
2023/05/15 04:56:07;;;;;;;17.50;12.23;;;;;;;;;;5058353;28;20057;-58
2023/05/15 04:58:34;;;;;;;21.90;14.15;;;;;;;;;;5058395;28;20135;-58
2023/05/15 05:01:01;;;;;;;20.75;14.50;;;;;;;;;;5068912;28;20059;-60
2023/05/15 05:03:28;;;;;;;22.15;15.00;;;;;;;;;;5067798;28;20059;-60
2023/05/15 05:05:55;;;;;;;25.83;15.10;;;;;;;;;;5052549;28;20053;-60
2023/05/15 05:08:23;;;;;;;23.98;13.15;;;;;;;;;;5052437;28;20536;-60
2023/05/15 05:10:54;;;;;;;24.92;15.43;;;;;;;;;;5052558;28;20044;-60
2023/05/15 05:13:21;;;;;;;24.70;17.23;;;;;;;;;;5064878;28;20056;-60
2023/05/15 05:15:49;;;;;;;28.48;17.55;;;;;;;;;;5072251;28;20052;-60
2023/05/15 05:18:16;;;;;;;28.05;18.35;;;;;;;;;;5072018;28;20053;-60
2023/05/15 05:20:43;;;;;;;31.58;19.83;;;;;;;;;;5071841;28;20053;-60
2023/05/15 05:23:09;;;;;;;31.30;20.30;;;;;;;;;;5071915;28;20053;-59
2023/05/15 05:25:38;;;;;;;31.63;19.83;;;;;;;;;;5072308;28;20048;-60
2023/05/15 05:28:04;;;;;;;29.05;18.83;;;;;;;;;;5068622;28;20052;-59
2023/05/15 05:30:31;;;;;;;23.98;17.75;;;;;;;;;;5072355;28;20052;-60
2023/05/15 05:32:58;;;;;;;31.55;21.25;;;;;;;;;;5072386;28;20048;-60
2023/05/15 05:35:26;;;;;;;35.78;23.08;;;;;;;;;;5072329;28;20048;-60
2023/05/15 05:37:53;;;;;;;40.58;27.67;;;;;;;;;;5072161;28;20059;-59
2023/05/15 05:40:20;;;;;;;41.50;26.27;;;;;;;;;;5072420;28;20048;-60
2023/05/15 05:42:48;;;;;;;45.42;28.73;;;;;;;;;;5064125;28;20057;-60
2023/05/15 05:45:15;;;;;;;41.10;26.10;;;;;;;;;;5060813;28;20057;-60
2023/05/15 05:47:42;;;;;;;41.15;27.20;;;;;;;;;;5051712;28;20059;-60
2023/05/15 05:50:08;;;;;;;38.67;26.65;;;;;;;;;;5053950;28;20061;-60
2023/05/15 05:52:35;;;;;;;38.83;26.05;;;;;;;;;;5053139;28;20052;-61
2023/05/15 05:55:03;;;;;;;39.83;26.90;;;;;;;;;;5057939;28;20470;-60
2023/05/15 05:57:29;;;;;;;39.25;26.77;;;;;;;;;;5056730;28;20064;-58
2023/05/15 05:59:58;;;;;;;37.95;27.27;;;;;;;;;;5057130;28;20120;-58
2023/05/15 06:02:25;;;;;;;42.30;27.85;;;;;;;;;;5055941;28;20500;-58
2023/05/15 06:04:52;;;;;;;37.50;27.02;;;;;;;;;;5060683;28;20059;-58
2023/05/15 06:07:24;;;;;;;40.78;28.20;;;;;;;;;;5064043;28;20067;-58
2023/05/15 06:09:51;;;;;;;38.20;28.23;;;;;;;;;;5057307;28;20166;-58
2023/05/15 06:12:18;;;;;;;37.40;27.88;;;;;;;;;;5059057;28;20064;-61
2023/05/15 06:14:45;;;;;;;40.42;29.30;;;;;;;;;;5058982;28;20052;-59
2023/05/15 06:17:13;;;;;;;40.25;28.15;;;;;;;;;;5059570;28;20625;-59
2023/05/15 06:19:40;;;;;;;39.97;28.95;;;;;;;;;;5064029;28;20411;-59
2023/05/15 06:22:07;;;;;;;37.15;29.30;;;;;;;;;;5071565;28;20059;-60
2023/05/15 06:24:33;;;;;;;39.15;29.63;;;;;;;;;;5065840;28;20052;-60
2023/05/15 06:27:00;;;;;;;41.42;28.98;;;;;;;;;;5061162;28;20049;-59
2023/05/15 06:29:27;;;;;;;41.83;31.17;;;;;;;;;;5074754;28;20056;-60
2023/05/15 06:31:54;;;;;;;42.90;31.27;;;;;;;;;;5074480;28;20041;-59
2023/05/15 06:34:22;;;;;;;40.22;31.40;;;;;;;;;;5073933;28;20059;-59
2023/05/15 06:36:49;;;;;;;48.30;34.28;;;;;;;;;;5074480;28;20056;-59
2023/05/15 06:39:16;;;;;;;48.25;35.30;;;;;;;;;;5074229;28;20055;-60
2023/05/15 06:41:42;;;;;;;50.70;35.65;;;;;;;;;;5071439;28;20048;-59
2023/05/15 06:44:09;;;;;;;52.05;37.05;;;;;;;;;;5054527;28;20053;-59
2023/05/15 06:46:36;;;;;;;50.50;36.42;;;;;;;;;;5054057;28;20060;-59
2023/05/15 06:49:03;;;;;;;60.38;38.90;;;;;;;;;;5054534;28;20072;-60
2023/05/15 06:51:31;;;;;;;51.63;37.85;;;;;;;;;;5054292;28;20482;-59
2023/05/15 06:53:58;;;;;;;57.95;39.17;;;;;;;;;;5053623;28;20091;-59
2023/05/15 06:56:25;;;;;;;61.95;41.67;;;;;;;;;;5065703;28;20049;-59
2023/05/15 06:58:51;;;;;;;57.35;38.92;;;;;;;;;;5054050;28;20053;-59
2023/05/15 07:01:18;;;;;;;59.33;41.28;;;;;;;;;;5067113;28;20084;-59
2023/05/15 07:03:45;;;;;;;59.05;41.65;;;;;;;;;;5071195;28;20048;-59
2023/05/15 07:06:12;;;;;;;49.58;36.60;;;;;;;;;;5074052;28;20465;-51
2023/05/15 07:08:40;;;;;;;57.03;40.83;;;;;;;;;;5068913;28;20056;-52
2023/05/15 07:11:07;;;;;;;53.13;37.40;;;;;;;;;;5067424;28;20056;-52
2023/05/15 07:13:34;;;;;;;52.35;37.47;;;;;;;;;;5051440;28;20048;-48
2023/05/15 07:16:02;;;;;;;51.38;38.38;;;;;;;;;;5060228;28;20058;-57
2023/05/15 07:18:30;;;;;;;49.78;36.47;;;;;;;;;;5062597;28;20056;-57
2023/05/15 07:20:57;;;;;;;47.47;36.58;;;;;;;;;;5059988;28;20048;-57
2023/05/15 07:23:23;;;;;;;47.08;34.83;;;;;;;;;;5066160;28;20056;-57
2023/05/15 07:25:52;;;;;;;44.58;35.13;;;;;;;;;;5066747;28;20106;-57
2023/05/15 07:28:19;;;;;;;47.10;35.73;;;;;;;;;;5064231;28;20056;-57
2023/05/15 07:30:46;;;;;;;43.92;33.28;;;;;;;;;;5068017;28;20828;-57
2023/05/15 07:33:12;;;;;;;41.60;31.95;;;;;;;;;;5067177;28;20048;-57
2023/05/15 07:35:39;;;;;;;45.25;34.85;;;;;;;;;;5068159;28;20060;-57
2023/05/15 07:38:06;;;;;;;46.88;37.20;;;;;;;;;;5058772;28;20060;-58
2023/05/15 07:40:33;;;;;;;48.95;38.13;;;;;;;;;;5055933;28;20059;-58
2023/05/15 07:43:01;;;;;;;49.53;37.95;;;;;;;;;;5059958;28;20045;-58
2023/05/15 07:45:28;;;;;;;47.90;35.83;;;;;;;;;;5053522;28;20048;-58
2023/05/15 07:47:56;;;;;;;50.67;39.10;;;;;;;;;;5062671;28;20067;-58
2023/05/15 07:50:22;;;;;;;51.90;39.55;;;;;;;;;;5061814;28;20390;-58
2023/05/15 07:52:49;;;;;;;46.80;37.22;;;;;;;;;;5060308;28;20057;-58
2023/05/15 07:55:16;;;;;;;46.83;38.22;;;;;;;;;;5056780;28;20059;-58
2023/05/15 07:57:44;;;;;;;51.20;40.55;;;;;;;;;;5059851;28;20061;-58
2023/05/15 08:00:13;;;;;;;50.10;39.72;;;;;;;;;;5062835;28;20056;-58
2023/05/15 08:02:41;;;;;;;50.15;39.60;;;;;;;;;;5060708;28;20486;-58
2023/05/15 08:05:08;;;;;;;50.92;39.70;;;;;;;;;;5058342;28;20485;-58
2023/05/15 08:07:34;;;;;;;53.22;39.72;;;;;;;;;;5064696;28;20048;-58
2023/05/15 08:10:03;;;;;;;52.55;39.75;;;;;;;;;;5062668;28;20152;-57
2023/05/15 08:12:29;;;;;;;56.55;43.17;;;;;;;;;;5052363;28;20056;-58
2023/05/15 08:14:56;;;;;;;53.50;41.83;;;;;;;;;;5056658;28;20438;-58
2023/05/15 08:17:27;;;;;;;52.85;42.90;;;;;;;;;;5059525;28;20071;-57
2023/05/15 08:19:54;;;;;;;56.45;42.25;;;;;;;;;;5061059;28;20056;-58
2023/05/15 08:22:21;;;;;;;49.88;40.30;;;;;;;;;;5062002;28;20051;-58
2023/05/15 08:24:48;;;;;;;50.67;39.63;;;;;;;;;;5063493;28;20051;-58
2023/05/15 08:27:15;;;;;;;53.50;40.30;;;;;;;;;;5059575;28;20474;-58
2023/05/15 08:29:42;;;;;;;51.30;40.13;;;;;;;;;;5064086;28;20059;-57
2023/05/15 08:32:09;;;;;;;51.03;39.78;;;;;;;;;;5058949;28;20064;-61
2023/05/15 08:34:37;;;;;;;52.95;42.05;;;;;;;;;;5056485;28;20048;-61
2023/05/15 08:37:05;;;;;;;52.25;40.15;;;;;;;;;;5058115;28;20489;-61
2023/05/15 08:39:31;;;;;;;53.47;43.30;;;;;;;;;;5062209;28;20049;-58
2023/05/15 08:42:03;;;;;;;55.17;44.85;;;;;;;;;;5059877;28;20048;-58
2023/05/15 08:44:30;;;;;;;59.08;46.20;;;;;;;;;;5064548;28;20508;-58
2023/05/15 08:46:57;;;;;;;57.33;45.15;;;;;;;;;;5061900;28;20048;-58
2023/05/15 08:49:27;;;;;;;58.97;44.97;;;;;;;;;;5057891;28;20068;-58
2023/05/15 08:51:56;;;;;;;55.55;43.67;;;;;;;;;;5057727;28;20048;-58
2023/05/15 08:54:22;;;;;;;60.72;44.13;;;;;;;;;;5061590;28;21257;-58
2023/05/15 08:56:49;;;;;;;56.65;44.47;;;;;;;;;;5060806;28;20063;-58
2023/05/15 08:59:16;;;;;;;54.30;42.80;;;;;;;;;;5058145;28;20059;-58
2023/05/15 09:01:43;;;;;;;54.78;42.25;;;;;;;;;;5060600;28;20081;-58
2023/05/15 09:04:10;;;;;;;53.30;42.90;;;;;;;;;;5060757;28;20049;-58
2023/05/15 09:06:37;;;;;;;58.53;45.42;;;;;;;;;;5063222;28;20520;-58
2023/05/15 09:09:05;;;;;;;53.95;42.15;;;;;;;;;;5061216;28;20060;-58
2023/05/15 09:11:32;;;;;;;59.50;41.60;;;;;;;;;;5057945;28;20056;-58
2023/05/15 09:13:59;;;;;;;48.97;42.08;;;;;;;;;;5062692;28;20509;-58
2023/05/15 09:16:27;;;;;;;44.00;39.17;;;;;;;;;;5062853;28;20056;-58
2023/05/15 09:18:54;;;;;;;52.47;41.60;;;;;;;;;;5060729;28;20052;-58
2023/05/15 09:21:24;;;;;;;45.17;40.15;;;;;;;;;;5060753;28;20135;-58
2023/05/15 09:23:51;;;;;;;42.08;37.47;;;;;;;;;;5064014;28;20055;-58
2023/05/15 09:26:20;;;;;;;41.92;37.08;;;;;;;;;;5061027;28;20057;-59
2023/05/15 09:28:47;;;;;;;40.25;36.08;;;;;;;;;;5066761;28;20057;-59
2023/05/15 09:31:14;;;;;;;39.55;35.67;;;;;;;;;;5061200;28;20601;-61
2023/05/15 09:33:42;;;;;;;39.78;35.60;;;;;;;;;;5063798;28;20060;-61
2023/05/15 09:36:09;;;;;;;41.25;36.90;;;;;;;;;;5063463;28;20493;-61
2023/05/15 09:38:40;;;;;;;37.10;33.20;;;;;;;;;;5065004;28;20512;-58
2023/05/15 09:41:07;;;;;;;37.88;33.97;;;;;;;;;;5059972;28;20068;-58
2023/05/15 09:43:36;;;;;;;37.83;33.93;;;;;;;;;;5067079;28;20044;-58
2023/05/15 09:46:03;;;;;;;36.63;32.92;;;;;;;;;;5062177;28;20067;-58
2023/05/15 09:48:30;;;;;;;38.15;34.38;;;;;;;;;;5066576;28;20049;-58
2023/05/15 09:50:57;;;;;;;34.00;30.67;;;;;;;;;;5063255;28;20052;-58
2023/05/15 09:53:24;;;;;;;32.10;28.98;;;;;;;;;;5065595;28;20063;-57
2023/05/15 09:55:53;;;;;;;33.45;30.25;;;;;;;;;;5060283;28;20067;-60
2023/05/15 09:58:19;;;;;;;33.05;30.00;;;;;;;;;;5058812;28;20048;-59
2023/05/15 10:00:48;;;;;;;31.80;28.85;;;;;;;;;;5059455;28;20504;-60
2023/05/15 10:03:15;;;;;;;31.77;28.73;;;;;;;;;;5059054;28;20413;-63
2023/05/15 10:05:42;;;;;;;32.70;29.23;;;;;;;;;;5062915;28;20067;-60
2023/05/15 10:08:09;;;;;;;32.95;30.00;;;;;;;;;;5065816;28;20060;-60
2023/05/15 10:10:36;;;;;;;31.25;28.35;;;;;;;;;;5065698;28;20417;-60
2023/05/15 10:13:04;;;;;;;28.30;25.88;;;;;;;;;;5053118;28;20057;-59
2023/05/15 10:15:31;;;;;;;;;;;;;;;;;;5060614;28;20053;-60
2023/05/15 10:17:59;;;;;;;27.10;24.48;;;;;;;;;;5063498;28;19920;-62
2023/05/15 10:20:26;;;;;;;24.90;22.73;;;;;;;;;;5069450;28;20056;-62
2023/05/15 10:22:54;;;;;;;24.25;21.92;;;;;;;;;;5065529;28;20060;-59
2023/05/15 10:25:26;;;;;;;19.38;17.58;;;;;;;;;;5066100;28;20053;-60
2023/05/15 10:27:54;;;;;;;16.80;15.30;;;;;;;;;;5067253;28;20064;-59
2023/05/15 10:30:21;;;;;;;16.10;14.70;;;;;;;;;;5069042;28;20497;-59
2023/05/15 10:32:48;;;;;;;14.85;13.35;;;;;;;;;;5065986;28;20060;-60
2023/05/15 10:35:17;;;;;;;13.55;12.20;;;;;;;;;;5068649;28;20059;-59
2023/05/15 10:37:45;;;;;;;13.25;11.90;;;;;;;;;;5068967;28;20053;-59
2023/05/15 10:40:12;;;;;;;12.67;10.27;;;;;;;;;;5064278;28;20048;-59
2023/05/15 10:42:41;;;;;;;11.07;9.97;;;;;;;;;;5069230;28;20061;-59
2023/05/15 10:45:08;;;;;;;11.85;10.40;;;;;;;;;;5067105;28;20057;-59
2023/05/15 10:47:36;;;;;;;12.88;11.68;;;;;;;;;;5068056;28;20063;-61
2023/05/15 10:50:03;;;;;;;11.13;10.13;;;;;;;;;;5067244;28;20052;-62
2023/05/15 10:52:33;;;;;;;9.93;9.03;;;;;;;;;;5069927;28;20052;-61
2023/05/15 10:54:59;;;;;;;11.02;9.50;;;;;;;;;;5066712;28;20052;-61
2023/05/15 10:57:28;;;;;;;10.75;9.45;;;;;;;;;;5065532;28;20061;-61
2023/05/15 10:59:55;;;;;;;10.85;9.18;;;;;;;;;;5062537;28;20701;-62
2023/05/15 11:02:23;;;;;;;10.38;9.48;;;;;;;;;;5066621;28;20061;-60
2023/05/15 11:04:54;;;;;;;10.52;9.27;;;;;;;;;;5063721;28;20071;-61
2023/05/15 11:07:22;;;;;;;9.93;8.93;;;;;;;;;;5064739;28;20060;-61
2023/05/15 11:09:51;;;;;;;9.10;8.13;;;;;;;;;;5063819;28;20486;-61
2023/05/15 11:12:18;;;;;;;11.55;8.23;;;;;;;;;;5058080;28;20063;-61
2023/05/15 11:15:00;;;;;;;9.48;8.65;;;;;;;;;;5061110;28;20047;-61
2023/05/15 11:17:27;;;;;;;10.07;9.07;;;;;;;;;;5059704;28;20091;-61
2023/05/15 11:19:59;;;;;;;10.50;9.38;;;;;;;;;;5061015;28;20048;-60
2023/05/15 11:22:27;;;;;;;10.52;9.50;;;;;;;;;;5060141;28;20060;-60
2023/05/15 11:24:58;;;;;;;9.55;8.75;;;;;;;;;;5058696;28;20409;-61
2023/05/15 11:27:25;;;;;;;10.45;9.45;;;;;;;;;;5055482;28;20146;-62
2023/05/15 11:30:04;;;;;;;10.55;9.35;;;;;;;;;;5052241;28;20103;-62
2023/05/15 11:32:32;;;;;;;10.95;8.95;;;;;;;;;;5059813;28;20056;-62
2023/05/15 11:34:59;;;;;;;10.57;9.48;;;;;;;;;;5052488;28;20053;-62
2023/05/15 11:37:27;;;;;;;10.35;9.20;;;;;;;;;;5052942;28;20497;-61
2023/05/15 11:39:55;;;;;;;10.40;9.40;;;;;;;;;;5052891;28;20359;-62
2023/05/15 11:42:22;;;;;;;10.30;8.88;;;;;;;;;;5059033;28;20067;-61
2023/05/15 11:44:49;;;;;;;10.75;9.75;;;;;;;;;;5066273;28;20045;-61
2023/05/15 11:47:16;;;;;;;10.40;9.35;;;;;;;;;;5055949;28;20056;-62
2023/05/15 11:49:43;;;;;;;10.52;9.23;;;;;;;;;;5052815;28;20053;-61
2023/05/15 11:52:09;;;;;;;9.73;8.35;;;;;;;;;;5057820;28;20072;-61
2023/05/15 11:54:36;;;;;;;9.40;8.23;;;;;;;;;;5055024;28;20041;-61
2023/05/15 11:57:07;;;;;;;8.75;7.85;;;;;;;;;;5055036;28;20049;-61
2023/05/15 11:59:34;;;;;;;8.60;7.65;;;;;;;;;;5059346;28;20060;-62
2023/05/15 12:02:00;;;;;;;7.82;7.03;;;;;;;;;;5064806;28;20060;-61
2023/05/15 12:04:27;;;;;;;8.43;6.90;;;;;;;;;;5053136;28;20378;-61
2023/05/15 12:06:55;;;;;;;9.75;7.75;;;;;;;;;;5055451;28;20060;-61
2023/05/15 12:09:26;;;;;;;8.43;7.65;;;;;;;;;;5067103;28;20409;-61
2023/05/15 12:11:53;;;;;;;8.25;7.30;;;;;;;;;;5060839;28;20421;-61
2023/05/15 12:14:27;;;;;;;7.10;6.40;;;;;;;;;;5065404;28;20049;-62
2023/05/15 12:16:56;;;;;;;7.57;6.45;;;;;;;;;;5059143;28;20508;-61
2023/05/15 12:19:27;;;;;;;7.18;6.38;;;;;;;;;;5059848;28;20053;-61
2023/05/15 12:21:54;;;;;;;7.07;6.38;;;;;;;;;;5064327;28;20051;-62
2023/05/15 12:24:21;;;;;;;7.50;6.72;;;;;;;;;;5060212;28;20119;-61
2023/05/15 12:26:48;;;;;;;9.40;6.25;;;;;;;;;;5059355;28;20041;-61
2023/05/15 12:29:15;;;;;;;7.25;6.43;;;;;;;;;;5059563;28;20067;-61
2023/05/15 12:31:43;;;;;;;6.70;5.57;;;;;;;;;;5063363;28;20056;-61
2023/05/15 12:34:10;;;;;;;6.22;5.57;;;;;;;;;;5063857;28;20049;-61
2023/05/15 12:36:37;;;;;;;7.07;5.15;;;;;;;;;;5063018;28;20063;-61
2023/05/15 12:39:04;;;;;;;6.88;4.95;;;;;;;;;;5063259;28;20048;-61
2023/05/15 12:41:31;;;;;;;5.57;5.00;;;;;;;;;;5059848;28;20052;-61
2023/05/15 12:43:58;;;;;;;7.25;5.18;;;;;;;;;;5061131;28;20058;-61
2023/05/15 12:46:25;;;;;;;5.43;4.38;;;;;;;;;;5060329;28;20071;-61
2023/05/15 12:48:54;;;;;;;7.32;5.13;;;;;;;;;;5063488;28;20073;-61
2023/05/15 12:51:22;;;;;;;6.07;5.32;;;;;;;;;;5059684;28;20048;-61
2023/05/15 12:53:52;;;;;;;6.10;4.90;;;;;;;;;;5062833;28;20048;-61
2023/05/15 12:56:18;;;;;;;5.78;4.50;;;;;;;;;;5055515;28;20049;-61
2023/05/15 12:58:47;;;;;;;7.28;5.00;;;;;;;;;;5061399;28;20055;-62
2023/05/15 13:01:15;;;;;;;6.55;5.10;;;;;;;;;;5056799;28;20402;-62
2023/05/15 13:03:42;;;;;;;5.05;4.55;;;;;;;;;;5058137;28;20082;-61
2023/05/15 13:06:11;;;;;;;6.83;4.70;;;;;;;;;;5065267;28;20056;-61
2023/05/15 13:08:39;;;;;;;5.47;4.75;;;;;;;;;;5065164;28;20402;-61
2023/05/15 13:11:06;;;;;;;6.45;5.03;;;;;;;;;;5060820;28;20049;-62
2023/05/15 13:13:42;;;;;;;5.78;4.50;;;;;;;;;;5062734;28;20406;-62
2023/05/15 13:16:17;;;;;;;6.18;4.55;;;;;;;;;;5060911;28;20401;-62
2023/05/15 13:18:44;;;;;;;4.03;3.63;;;;;;;;;;5070131;28;20056;-62
2023/05/15 13:21:12;;;;;;;7.25;4.28;;;;;;;;;;5068169;28;20052;-61
2023/05/15 13:23:39;;;;;;;4.72;3.53;;;;;;;;;;5064152;28;20048;-61
2023/05/15 13:26:06;;;;;;;5.32;4.50;;;;;;;;;;5062210;28;20052;-62
2023/05/15 13:28:33;;;;;;;5.10;4.53;;;;;;;;;;5068137;28;20067;-61
2023/05/15 13:31:00;;;;;;;5.22;4.30;;;;;;;;;;5053271;28;20053;-61
2023/05/15 13:33:27;;;;;;;5.80;3.97;;;;;;;;;;5065338;28;20421;-61
2023/05/15 13:35:56;;;;;;;5.72;3.90;;;;;;;;;;5064966;28;20053;-61
2023/05/15 13:38:24;;;;;;;5.10;3.47;;;;;;;;;;5055605;28;20056;-60
2023/05/15 13:40:51;;;;;;;3.97;3.58;;;;;;;;;;5071018;28;20055;-61
2023/05/15 13:43:17;;;;;;;4.82;3.40;;;;;;;;;;5075356;28;20048;-62
2023/05/15 13:45:44;;;;;;;4.78;3.38;;;;;;;;;;5057900;28;20057;-62
2023/05/15 13:48:11;;;;;;;4.65;3.08;;;;;;;;;;5055303;28;20060;-59
2023/05/15 13:50:38;;;;;;;5.28;3.67;;;;;;;;;;5062565;28;20123;-59
2023/05/15 13:53:05;;;;;;;3.85;3.40;;;;;;;;;;5064494;28;20048;-58
2023/05/15 13:55:33;;;;;;;3.80;3.28;;;;;;;;;;5055287;28;20063;-58
2023/05/15 13:58:01;;;;;;;4.22;3.60;;;;;;;;;;5062734;28;20057;-58
2023/05/15 14:00:27;;;;;;;4.68;3.60;;;;;;;;;;5062871;28;20532;-58
2023/05/15 14:02:54;;;;;;;5.75;3.97;;;;;;;;;;5059387;28;20057;-58
2023/05/15 14:05:21;;;;;;;7.00;3.97;;;;;;;;;;5066752;28;20082;-59
2023/05/15 14:07:48;;;;;;;5.30;3.70;;;;;;;;;;5063017;28;20056;-59
2023/05/15 14:10:15;;;;;;;7.03;3.58;;;;;;;;;;5054195;28;20493;-59
2023/05/15 14:12:43;;;;;;;4.10;3.70;;;;;;;;;;5064262;28;20131;-59
2023/05/15 14:15:11;;;;;;;9.23;4.72;;;;;;;;;;5058114;28;20478;-59
2023/05/15 14:17:37;;;;;;;5.35;3.65;;;;;;;;;;5066842;28;20052;-59
2023/05/15 14:20:05;;;;;;;3.50;3.20;;;;;;;;;;5063779;28;20494;-59
2023/05/15 14:22:32;;;;;;;4.97;3.60;;;;;;;;;;5058262;28;20053;-59
2023/05/15 14:24:59;;;;;;;5.03;3.78;;;;;;;;;;5060727;28;20059;-58
2023/05/15 14:27:25;;;;;;;4.22;3.72;;;;;;;;;;5064228;28;20048;-59
2023/05/15 14:29:55;;;;;;;7.05;4.25;;;;;;;;;;5062600;28;20055;-58
2023/05/15 14:32:22;;;;;;;4.63;3.80;;;;;;;;;;5064674;28;20128;-61
2023/05/15 14:34:49;;;;;;;5.07;3.92;;;;;;;;;;5066325;28;20048;-61